首页
METAR-TAF:

METAR-TAF

机场 :

Watertown, 紐約州, 美国

纬度: 43-59-31N, 经度: 076-01-18W, 海拔: 99米

当前天气观测

该预报发布于30分钟前的00:56 UTC
风速3节,风向南转南东
温度 21°C
湿度 64%
气压 1011 hPa
能見度: 16.1公里
阴天层高于8500英尺

METAR: KART 190056Z AUTO 16003KT 10SM OVC085 21/14 A2985 RMK AO2 SLP103 T02110139

时间: 21:26 (01:26 UTC)

预报

该预报发布于1小时和47分钟前的23:39 UTC
预报有效从19日的 00点(UTC)到 19日的 24点(UTC)
风速3节,风向多变
能見度: 10公里
多云层高于8000英尺
从 19日的 0200点(UTC)
风速3节,风向多变
能見度: 10公里
少量云层高于12000英尺
从 19日的 1200点(UTC)
风速3节,风向多变
能見度: 10公里
散云层高于9000英尺
从 19日的 1500点(UTC)
风速6节,风向西转西南
能見度: 10公里
散云层高于10000英尺
从 19日的 2000点(UTC)
风速6节,风向西
能見度: 10公里
散云层高于4000英尺

TAF: KART 182339Z 1900/1924 VRB03KT P6SM BKN080 FM190200 VRB03KT P6SM FEW120 FM191200 VRB03KT P6SM SCT090 FM191500 24006KT P6SM SCT100 FM192000 26006KT P6SM SCT040

超过4000个机场的气象观测和天气预报(METAR&TAF报告)。

可查询的气象台以黄色和红色小点在地图上表示。

将鼠标移到小点上方,可查看气象台名称。

然后点击查看天气观测和预报。

如需切换地图:点击带黑十字的绿色按钮放大地图;点击带横线的绿色按钮缩小地图;或者点击绿色箭头查看邻近地区的地图。


METAR-TAF: